sensor_id;sensor_type;location;lat;lon;timestamp;P1;durP1;ratioP1;P2;durP2;ratioP2
38499;SDS011;24269;51.894;4.622;2022-07-22T00:00:00;6.80;;;2.10;;
38499;SDS011;24269;51.894;4.622;2022-07-22T00:02:26;7.38;;;1.90;;
38499;SDS011;24269;51.894;4.622;2022-07-22T00:04:52;11.23;;;2.47;;
38499;SDS011;24269;51.894;4.622;2022-07-22T00:07:17;7.65;;;2.30;;
38499;SDS011;24269;51.894;4.622;2022-07-22T00:09:43;10.43;;;2.58;;
38499;SDS011;24269;51.894;4.622;2022-07-22T00:12:09;7.68;;;2.47;;
38499;SDS011;24269;51.894;4.622;2022-07-22T00:14:35;7.68;;;2.00;;
38499;SDS011;24269;51.894;4.622;2022-07-22T00:17:00;9.35;;;2.28;;
38499;SDS011;24269;51.894;4.622;2022-07-22T00:19:26;10.48;;;2.22;;
38499;SDS011;24269;51.894;4.622;2022-07-22T00:21:52;10.50;;;2.10;;
38499;SDS011;24269;51.894;4.622;2022-07-22T00:24:18;6.18;;;1.85;;
38499;SDS011;24269;51.894;4.622;2022-07-22T00:26:44;8.15;;;1.90;;
38499;SDS011;24269;51.894;4.622;2022-07-22T00:29:10;7.55;;;1.60;;
38499;SDS011;24269;51.894;4.622;2022-07-22T00:31:35;9.75;;;2.00;;
38499;SDS011;24269;51.894;4.622;2022-07-22T00:34:01;7.68;;;2.42;;
38499;SDS011;24269;51.894;4.622;2022-07-22T00:36:27;10.80;;;2.25;;
38499;SDS011;24269;51.894;4.622;2022-07-22T00:38:54;8.05;;;1.98;;
38499;SDS011;24269;51.894;4.622;2022-07-22T00:41:19;10.85;;;2.28;;
38499;SDS011;24269;51.894;4.622;2022-07-22T00:43:52;6.95;;;2.28;;
38499;SDS011;24269;51.894;4.622;2022-07-22T00:46:18;11.95;;;2.28;;
38499;SDS011;24269;51.894;4.622;2022-07-22T00:48:44;9.30;;;1.90;;
38499;SDS011;24269;51.894;4.622;2022-07-22T00:51:09;8.48;;;2.20;;
38499;SDS011;24269;51.894;4.622;2022-07-22T00:53:35;10.68;;;2.28;;
38499;SDS011;24269;51.894;4.622;2022-07-22T00:56:02;9.68;;;2.50;;
38499;SDS011;24269;51.894;4.622;2022-07-22T00:58:28;8.10;;;2.05;;
38499;SDS011;24269;51.894;4.622;2022-07-22T01:00:54;10.38;;;2.42;;
38499;SDS011;24269;51.894;4.622;2022-07-22T01:03:20;7.45;;;2.10;;
38499;SDS011;24269;51.894;4.622;2022-07-22T01:05:45;7.00;;;2.20;;
38499;SDS011;24269;51.894;4.622;2022-07-22T01:08:11;11.40;;;2.38;;
38499;SDS011;24269;51.894;4.622;2022-07-22T01:10:37;8.45;;;2.33;;
38499;SDS011;24269;51.894;4.622;2022-07-22T01:13:02;9.73;;;2.20;;
38499;SDS011;24269;51.894;4.622;2022-07-22T01:15:28;7.82;;;2.40;;
38499;SDS011;24269;51.894;4.622;2022-07-22T01:17:54;11.63;;;2.25;;
38499;SDS011;24269;51.894;4.622;2022-07-22T01:20:19;9.73;;;2.33;;
38499;SDS011;24269;51.894;4.622;2022-07-22T01:22:45;9.63;;;2.20;;
38499;SDS011;24269;51.894;4.622;2022-07-22T01:25:11;10.38;;;2.30;;
38499;SDS011;24269;51.894;4.622;2022-07-22T01:27:37;8.35;;;2.25;;
38499;SDS011;24269;51.894;4.622;2022-07-22T01:30:03;10.10;;;2.10;;
38499;SDS011;24269;51.894;4.622;2022-07-22T01:32:30;7.47;;;2.40;;
38499;SDS011;24269;51.894;4.622;2022-07-22T01:34:55;8.35;;;2.50;;
38499;SDS011;24269;51.894;4.622;2022-07-22T01:37:21;11.27;;;2.50;;
38499;SDS011;24269;51.894;4.622;2022-07-22T01:39:47;8.07;;;2.67;;
38499;SDS011;24269;51.894;4.622;2022-07-22T01:42:14;9.20;;;2.40;;
38499;SDS011;24269;51.894;4.622;2022-07-22T01:44:39;13.48;;;2.58;;
38499;SDS011;24269;51.894;4.622;2022-07-22T01:47:06;10.82;;;2.65;;
38499;SDS011;24269;51.894;4.622;2022-07-22T01:49:32;10.20;;;2.88;;
38499;SDS011;24269;51.894;4.622;2022-07-22T01:51:59;9.20;;;2.58;;
38499;SDS011;24269;51.894;4.622;2022-07-22T01:54:25;9.85;;;2.45;;
38499;SDS011;24269;51.894;4.622;2022-07-22T01:56:51;9.48;;;2.90;;
38499;SDS011;24269;51.894;4.622;2022-07-22T01:59:17;9.88;;;2.47;;
38499;SDS011;24269;51.894;4.622;2022-07-22T02:01:42;13.90;;;2.75;;
38499;SDS011;24269;51.894;4.622;2022-07-22T02:04:08;10.45;;;2.80;;
38499;SDS011;24269;51.894;4.622;2022-07-22T02:06:34;8.75;;;2.45;;
38499;SDS011;24269;51.894;4.622;2022-07-22T02:08:59;9.77;;;2.72;;
38499;SDS011;24269;51.894;4.622;2022-07-22T02:11:25;10.02;;;2.65;;
38499;SDS011;24269;51.894;4.622;2022-07-22T02:13:51;11.02;;;2.63;;
38499;SDS011;24269;51.894;4.622;2022-07-22T02:16:16;10.85;;;2.75;;
38499;SDS011;24269;51.894;4.622;2022-07-22T02:18:42;10.25;;;2.42;;
38499;SDS011;24269;51.894;4.622;2022-07-22T02:21:08;11.98;;;2.70;;
38499;SDS011;24269;51.894;4.622;2022-07-22T02:23:34;10.40;;;2.53;;
38499;SDS011;24269;51.894;4.622;2022-07-22T02:25:59;9.00;;;2.20;;
38499;SDS011;24269;51.894;4.622;2022-07-22T02:28:25;7.70;;;2.35;;
38499;SDS011;24269;51.894;4.622;2022-07-22T02:30:51;9.25;;;2.25;;
38499;SDS011;24269;51.894;4.622;2022-07-22T02:33:16;8.48;;;2.38;;
38499;SDS011;24269;51.894;4.622;2022-07-22T02:35:42;7.78;;;2.35;;
38499;SDS011;24269;51.894;4.622;2022-07-22T02:38:08;9.10;;;2.38;;
38499;SDS011;24269;51.894;4.622;2022-07-22T02:40:33;6.35;;;2.42;;
38499;SDS011;24269;51.894;4.622;2022-07-22T02:42:59;9.20;;;2.33;;
38499;SDS011;24269;51.894;4.622;2022-07-22T02:45:25;11.23;;;2.58;;
38499;SDS011;24269;51.894;4.622;2022-07-22T02:47:54;9.98;;;2.35;;
38499;SDS011;24269;51.894;4.622;2022-07-22T02:50:20;7.30;;;2.50;;
38499;SDS011;24269;51.894;4.622;2022-07-22T02:52:46;8.20;;;2.30;;
38499;SDS011;24269;51.894;4.622;2022-07-22T02:55:12;9.98;;;2.45;;
38499;SDS011;24269;51.894;4.622;2022-07-22T02:57:38;7.80;;;2.00;;
38499;SDS011;24269;51.894;4.622;2022-07-22T03:00:05;8.95;;;2.20;;
38499;SDS011;24269;51.894;4.622;2022-07-22T03:02:33;6.57;;;1.95;;
38499;SDS011;24269;51.894;4.622;2022-07-22T03:04:59;5.40;;;1.92;;
38499;SDS011;24269;51.894;4.622;2022-07-22T03:07:24;8.55;;;2.35;;
38499;SDS011;24269;51.894;4.622;2022-07-22T03:09:50;6.72;;;2.40;;
38499;SDS011;24269;51.894;4.622;2022-07-22T03:12:16;9.82;;;2.50;;
38499;SDS011;24269;51.894;4.622;2022-07-22T03:14:41;9.02;;;2.00;;
38499;SDS011;24269;51.894;4.622;2022-07-22T03:17:07;6.72;;;1.80;;
38499;SDS011;24269;51.894;4.622;2022-07-22T03:19:32;9.65;;;1.88;;
38499;SDS011;24269;51.894;4.622;2022-07-22T03:21:58;8.43;;;2.28;;
38499;SDS011;24269;51.894;4.622;2022-07-22T03:24:23;6.97;;;1.95;;
38499;SDS011;24269;51.894;4.622;2022-07-22T03:26:49;8.20;;;1.80;;
38499;SDS011;24269;51.894;4.622;2022-07-22T03:29:15;7.82;;;2.00;;
38499;SDS011;24269;51.894;4.622;2022-07-22T03:31:40;7.65;;;2.40;;
38499;SDS011;24269;51.894;4.622;2022-07-22T03:34:06;5.82;;;2.25;;
38499;SDS011;24269;51.894;4.622;2022-07-22T03:36:31;7.20;;;2.20;;
38499;SDS011;24269;51.894;4.622;2022-07-22T03:38:57;9.20;;;2.20;;
38499;SDS011;24269;51.894;4.622;2022-07-22T03:41:22;8.27;;;2.28;;
38499;SDS011;24269;51.894;4.622;2022-07-22T03:43:48;4.75;;;2.10;;
38499;SDS011;24269;51.894;4.622;2022-07-22T03:46:14;9.55;;;2.70;;
38499;SDS011;24269;51.894;4.622;2022-07-22T03:48:39;8.02;;;2.30;;
38499;SDS011;24269;51.894;4.622;2022-07-22T03:51:05;10.60;;;2.17;;
38499;SDS011;24269;51.894;4.622;2022-07-22T03:53:31;5.15;;;1.80;;
38499;SDS011;24269;51.894;4.622;2022-07-22T03:55:57;7.03;;;2.10;;
38499;SDS011;24269;51.894;4.622;2022-07-22T03:58:23;8.07;;;2.10;;
38499;SDS011;24269;51.894;4.622;2022-07-22T04:00:51;9.57;;;2.60;;
38499;SDS011;24269;51.894;4.622;2022-07-22T04:03:17;6.63;;;2.15;;
38499;SDS011;24269;51.894;4.622;2022-07-22T04:05:43;10.07;;;2.33;;
38499;SDS011;24269;51.894;4.622;2022-07-22T04:08:08;8.52;;;2.25;;
38499;SDS011;24269;51.894;4.622;2022-07-22T04:10:34;10.23;;;1.90;;
38499;SDS011;24269;51.894;4.622;2022-07-22T04:12:59;8.05;;;1.80;;
38499;SDS011;24269;51.894;4.622;2022-07-22T04:15:25;5.53;;;1.90;;
38499;SDS011;24269;51.894;4.622;2022-07-22T04:17:51;7.07;;;1.90;;
38499;SDS011;24269;51.894;4.622;2022-07-22T04:20:16;6.90;;;1.92;;
38499;SDS011;24269;51.894;4.622;2022-07-22T04:22:42;7.68;;;1.90;;
38499;SDS011;24269;51.894;4.622;2022-07-22T04:25:08;12.68;;;2.25;;
38499;SDS011;24269;51.894;4.622;2022-07-22T04:27:33;8.02;;;2.08;;
38499;SDS011;24269;51.894;4.622;2022-07-22T04:30:00;6.68;;;1.60;;
38499;SDS011;24269;51.894;4.622;2022-07-22T04:32:25;5.22;;;1.92;;
38499;SDS011;24269;51.894;4.622;2022-07-22T04:34:51;7.32;;;2.03;;
38499;SDS011;24269;51.894;4.622;2022-07-22T04:37:17;8.55;;;2.15;;
38499;SDS011;24269;51.894;4.622;2022-07-22T04:39:42;10.57;;;2.15;;
38499;SDS011;24269;51.894;4.622;2022-07-22T04:42:08;7.82;;;2.15;;
38499;SDS011;24269;51.894;4.622;2022-07-22T04:44:33;7.55;;;1.67;;
38499;SDS011;24269;51.894;4.622;2022-07-22T04:46:59;7.95;;;2.33;;
38499;SDS011;24269;51.894;4.622;2022-07-22T04:49:25;12.02;;;2.10;;
38499;SDS011;24269;51.894;4.622;2022-07-22T04:51:51;6.70;;;2.25;;
38499;SDS011;24269;51.894;4.622;2022-07-22T04:54:17;9.00;;;2.15;;
38499;SDS011;24269;51.894;4.622;2022-07-22T04:56:42;7.68;;;2.40;;
38499;SDS011;24269;51.894;4.622;2022-07-22T04:59:08;6.07;;;1.88;;
38499;SDS011;24269;51.894;4.622;2022-07-22T05:01:34;8.88;;;2.00;;
38499;SDS011;24269;51.894;4.622;2022-07-22T05:03:59;8.07;;;1.77;;
38499;SDS011;24269;51.894;4.622;2022-07-22T05:06:25;7.10;;;1.98;;
38499;SDS011;24269;51.894;4.622;2022-07-22T05:08:51;7.25;;;2.10;;
38499;SDS011;24269;51.894;4.622;2022-07-22T05:11:17;6.28;;;2.00;;
38499;SDS011;24269;51.894;4.622;2022-07-22T05:13:43;7.80;;;1.90;;
38499;SDS011;24269;51.894;4.622;2022-07-22T05:16:08;8.52;;;1.80;;
38499;SDS011;24269;51.894;4.622;2022-07-22T05:18:34;8.52;;;1.90;;
38499;SDS011;24269;51.894;4.622;2022-07-22T05:21:00;6.78;;;2.10;;
38499;SDS011;24269;51.894;4.622;2022-07-22T05:23:26;5.63;;;1.73;;
38499;SDS011;24269;51.894;4.622;2022-07-22T05:25:52;9.65;;;2.00;;
38499;SDS011;24269;51.894;4.622;2022-07-22T05:28:17;5.63;;;1.27;;
38499;SDS011;24269;51.894;4.622;2022-07-22T05:30:44;6.22;;;1.95;;
38499;SDS011;24269;51.894;4.622;2022-07-22T05:33:10;9.50;;;2.05;;
38499;SDS011;24269;51.894;4.622;2022-07-22T05:35:35;9.05;;;1.80;;
38499;SDS011;24269;51.894;4.622;2022-07-22T05:38:01;6.05;;;1.50;;
38499;SDS011;24269;51.894;4.622;2022-07-22T05:40:26;5.80;;;1.58;;
38499;SDS011;24269;51.894;4.622;2022-07-22T05:42:53;5.53;;;1.52;;
38499;SDS011;24269;51.894;4.622;2022-07-22T05:45:19;7.03;;;1.60;;
38499;SDS011;24269;51.894;4.622;2022-07-22T05:47:45;8.68;;;1.40;;
38499;SDS011;24269;51.894;4.622;2022-07-22T05:50:10;5.72;;;1.73;;
38499;SDS011;24269;51.894;4.622;2022-07-22T05:52:36;7.28;;;1.60;;
38499;SDS011;24269;51.894;4.622;2022-07-22T05:55:02;7.45;;;1.80;;
38499;SDS011;24269;51.894;4.622;2022-07-22T05:57:28;7.43;;;1.65;;
38499;SDS011;24269;51.894;4.622;2022-07-22T05:59:54;6.03;;;1.52;;
38499;SDS011;24269;51.894;4.622;2022-07-22T06:02:19;7.43;;;1.40;;
38499;SDS011;24269;51.894;4.622;2022-07-22T06:04:45;7.90;;;1.98;;
38499;SDS011;24269;51.894;4.622;2022-07-22T06:07:11;7.55;;;1.80;;
38499;SDS011;24269;51.894;4.622;2022-07-22T06:09:37;9.15;;;1.80;;
38499;SDS011;24269;51.894;4.622;2022-07-22T06:12:03;7.50;;;1.90;;
38499;SDS011;24269;51.894;4.622;2022-07-22T06:14:29;6.22;;;1.60;;
38499;SDS011;24269;51.894;4.622;2022-07-22T06:16:54;10.13;;;1.58;;
38499;SDS011;24269;51.894;4.622;2022-07-22T06:19:20;7.60;;;1.38;;
38499;SDS011;24269;51.894;4.622;2022-07-22T06:21:45;8.68;;;1.85;;
38499;SDS011;24269;51.894;4.622;2022-07-22T06:24:11;4.75;;;2.00;;
38499;SDS011;24269;51.894;4.622;2022-07-22T06:26:37;7.72;;;1.85;;
38499;SDS011;24269;51.894;4.622;2022-07-22T06:29:02;8.20;;;1.75;;
38499;SDS011;24269;51.894;4.622;2022-07-22T06:31:28;8.43;;;1.60;;
38499;SDS011;24269;51.894;4.622;2022-07-22T06:33:53;5.55;;;1.50;;
38499;SDS011;24269;51.894;4.622;2022-07-22T06:36:19;8.48;;;1.85;;
38499;SDS011;24269;51.894;4.622;2022-07-22T06:38:45;8.10;;;1.95;;
38499;SDS011;24269;51.894;4.622;2022-07-22T06:41:10;4.95;;;1.60;;
38499;SDS011;24269;51.894;4.622;2022-07-22T06:43:36;3.88;;;1.25;;
38499;SDS011;24269;51.894;4.622;2022-07-22T06:46:02;4.95;;;1.50;;
38499;SDS011;24269;51.894;4.622;2022-07-22T06:48:27;5.55;;;1.60;;
38499;SDS011;24269;51.894;4.622;2022-07-22T06:50:53;6.40;;;1.38;;
38499;SDS011;24269;51.894;4.622;2022-07-22T06:53:19;8.32;;;1.42;;
38499;SDS011;24269;51.894;4.622;2022-07-22T06:55:44;5.03;;;0.98;;
38499;SDS011;24269;51.894;4.622;2022-07-22T06:58:10;7.82;;;1.55;;
38499;SDS011;24269;51.894;4.622;2022-07-22T07:00:36;5.35;;;1.30;;
38499;SDS011;24269;51.894;4.622;2022-07-22T07:03:02;5.13;;;1.42;;
38499;SDS011;24269;51.894;4.622;2022-07-22T07:05:27;6.38;;;1.35;;
38499;SDS011;24269;51.894;4.622;2022-07-22T07:07:54;8.07;;;1.42;;
38499;SDS011;24269;51.894;4.622;2022-07-22T07:10:20;10.18;;;1.45;;
38499;SDS011;24269;51.894;4.622;2022-07-22T07:12:46;8.55;;;1.35;;
38499;SDS011;24269;51.894;4.622;2022-07-22T07:15:12;7.32;;;1.23;;
38499;SDS011;24269;51.894;4.622;2022-07-22T07:17:38;2.80;;;1.00;;
38499;SDS011;24269;51.894;4.622;2022-07-22T07:20:04;6.38;;;1.20;;
38499;SDS011;24269;51.894;4.622;2022-07-22T07:22:31;3.88;;;1.20;;
38499;SDS011;24269;51.894;4.622;2022-07-22T07:24:57;5.93;;;1.10;;
38499;SDS011;24269;51.894;4.622;2022-07-22T07:27:28;6.88;;;1.10;;
38499;SDS011;24269;51.894;4.622;2022-07-22T07:29:53;5.55;;;1.20;;
38499;SDS011;24269;51.894;4.622;2022-07-22T07:32:19;4.75;;;1.02;;
38499;SDS011;24269;51.894;4.622;2022-07-22T07:34:44;7.57;;;1.50;;
38499;SDS011;24269;51.894;4.622;2022-07-22T07:37:10;4.88;;;1.27;;
38499;SDS011;24269;51.894;4.622;2022-07-22T07:39:36;5.82;;;1.05;;
38499;SDS011;24269;51.894;4.622;2022-07-22T07:42:01;7.78;;;1.30;;
38499;SDS011;24269;51.894;4.622;2022-07-22T07:44:27;4.25;;;1.20;;
38499;SDS011;24269;51.894;4.622;2022-07-22T07:46:52;5.43;;;1.10;;
38499;SDS011;24269;51.894;4.622;2022-07-22T07:49:18;3.92;;;0.98;;
38499;SDS011;24269;51.894;4.622;2022-07-22T07:51:44;8.43;;;1.30;;
38499;SDS011;24269;51.894;4.622;2022-07-22T07:54:09;5.38;;;1.30;;
38499;SDS011;24269;51.894;4.622;2022-07-22T07:56:35;6.32;;;1.20;;
38499;SDS011;24269;51.894;4.622;2022-07-22T07:59:01;3.85;;;1.25;;
38499;SDS011;24269;51.894;4.622;2022-07-22T08:01:27;5.13;;;1.00;;
38499;SDS011;24269;51.894;4.622;2022-07-22T08:03:53;9.82;;;1.50;;
38499;SDS011;24269;51.894;4.622;2022-07-22T08:06:18;4.13;;;1.00;;
38499;SDS011;24269;51.894;4.622;2022-07-22T08:08:44;3.28;;;0.93;;
38499;SDS011;24269;51.894;4.622;2022-07-22T08:11:10;3.60;;;1.02;;
38499;SDS011;24269;51.894;4.622;2022-07-22T08:13:35;3.97;;;1.05;;
38499;SDS011;24269;51.894;4.622;2022-07-22T08:16:01;3.33;;;0.82;;
38499;SDS011;24269;51.894;4.622;2022-07-22T08:18:27;5.20;;;1.10;;
38499;SDS011;24269;51.894;4.622;2022-07-22T08:20:54;3.85;;;0.90;;
38499;SDS011;24269;51.894;4.622;2022-07-22T08:23:20;5.90;;;0.90;;
38499;SDS011;24269;51.894;4.622;2022-07-22T08:25:46;4.40;;;0.80;;
38499;SDS011;24269;51.894;4.622;2022-07-22T08:28:12;6.72;;;1.10;;
38499;SDS011;24269;51.894;4.622;2022-07-22T08:30:38;4.65;;;1.40;;
38499;SDS011;24269;51.894;4.622;2022-07-22T08:33:05;6.10;;;1.25;;
38499;SDS011;24269;51.894;4.622;2022-07-22T08:35:31;5.20;;;1.17;;
38499;SDS011;24269;51.894;4.622;2022-07-22T08:37:57;3.58;;;0.90;;
38499;SDS011;24269;51.894;4.622;2022-07-22T08:40:23;4.97;;;1.40;;
38499;SDS011;24269;51.894;4.622;2022-07-22T08:42:49;6.05;;;1.20;;
38499;SDS011;24269;51.894;4.622;2022-07-22T08:45:15;5.30;;;1.30;;
38499;SDS011;24269;51.894;4.622;2022-07-22T08:47:45;6.20;;;1.30;;
38499;SDS011;24269;51.894;4.622;2022-07-22T08:50:12;4.30;;;1.30;;
38499;SDS011;24269;51.894;4.622;2022-07-22T08:52:38;6.35;;;1.40;;
38499;SDS011;24269;51.894;4.622;2022-07-22T08:55:04;4.38;;;1.50;;
38499;SDS011;24269;51.894;4.622;2022-07-22T08:57:32;6.35;;;1.50;;
38499;SDS011;24269;51.894;4.622;2022-07-22T08:59:58;5.72;;;1.50;;
38499;SDS011;24269;51.894;4.622;2022-07-22T09:02:25;6.05;;;1.30;;
38499;SDS011;24269;51.894;4.622;2022-07-22T09:05:10;5.15;;;1.30;;
38499;SDS011;24269;51.894;4.622;2022-07-22T09:07:39;4.82;;;1.30;;
38499;SDS011;24269;51.894;4.622;2022-07-22T09:10:08;5.13;;;1.20;;
38499;SDS011;24269;51.894;4.622;2022-07-22T09:12:53;6.00;;;1.20;;
38499;SDS011;24269;51.894;4.622;2022-07-22T09:15:32;6.00;;;1.38;;
38499;SDS011;24269;51.894;4.622;2022-07-22T09:18:01;6.95;;;1.48;;
38499;SDS011;24269;51.894;4.622;2022-07-22T09:20:27;4.88;;;1.40;;
38499;SDS011;24269;51.894;4.622;2022-07-22T09:22:53;5.32;;;1.77;;
38499;SDS011;24269;51.894;4.622;2022-07-22T09:25:30;5.22;;;1.13;;
38499;SDS011;24269;51.894;4.622;2022-07-22T09:28:19;4.63;;;1.00;;
38499;SDS011;24269;51.894;4.622;2022-07-22T09:30:48;7.88;;;1.38;;
38499;SDS011;24269;51.894;4.622;2022-07-22T09:33:16;6.72;;;1.40;;
38499;SDS011;24269;51.894;4.622;2022-07-22T09:35:42;6.50;;;1.63;;
38499;SDS011;24269;51.894;4.622;2022-07-22T09:38:10;6.22;;;1.77;;
38499;SDS011;24269;51.894;4.622;2022-07-22T09:40:37;5.45;;;1.33;;
38499;SDS011;24269;51.894;4.622;2022-07-22T09:43:05;6.35;;;1.50;;
38499;SDS011;24269;51.894;4.622;2022-07-22T09:45:36;5.75;;;1.33;;
38499;SDS011;24269;51.894;4.622;2022-07-22T09:48:27;4.53;;;1.10;;
38499;SDS011;24269;51.894;4.622;2022-07-22T09:50:54;5.80;;;1.50;;
38499;SDS011;24269;51.894;4.622;2022-07-22T09:53:21;5.53;;;1.40;;
38499;SDS011;24269;51.894;4.622;2022-07-22T09:55:49;4.75;;;1.67;;
38499;SDS011;24269;51.894;4.622;2022-07-22T09:58:14;5.80;;;1.85;;
38499;SDS011;24269;51.894;4.622;2022-07-22T10:03:36;4.05;;;1.42;;
38499;SDS011;24269;51.894;4.622;2022-07-22T10:06:04;6.43;;;2.00;;
38499;SDS011;24269;51.894;4.622;2022-07-22T10:08:30;7.13;;;1.85;;
38499;SDS011;24269;51.894;4.622;2022-07-22T10:11:02;7.60;;;2.10;;
38499;SDS011;24269;51.894;4.622;2022-07-22T10:13:30;6.55;;;1.55;;
38499;SDS011;24269;51.894;4.622;2022-07-22T10:15:56;8.73;;;1.92;;
38499;SDS011;24269;51.894;4.622;2022-07-22T10:18:23;7.22;;;1.63;;
38499;SDS011;24269;51.894;4.622;2022-07-22T10:20:59;5.63;;;1.55;;
38499;SDS011;24269;51.894;4.622;2022-07-22T10:23:27;7.57;;;1.70;;
38499;SDS011;24269;51.894;4.622;2022-07-22T10:28:23;7.07;;;2.05;;
38499;SDS011;24269;51.894;4.622;2022-07-22T10:33:51;5.67;;;1.60;;
38499;SDS011;24269;51.894;4.622;2022-07-22T10:39:02;6.70;;;1.70;;
38499;SDS011;24269;51.894;4.622;2022-07-22T10:41:37;4.40;;;1.40;;
38499;SDS011;24269;51.894;4.622;2022-07-22T10:46:53;7.75;;;1.55;;
38499;SDS011;24269;51.894;4.622;2022-07-22T10:49:21;3.72;;;1.50;;
38499;SDS011;24269;51.894;4.622;2022-07-22T10:57:39;6.45;;;1.98;;
38499;SDS011;24269;51.894;4.622;2022-07-22T11:00:05;7.38;;;1.60;;
38499;SDS011;24269;51.894;4.622;2022-07-22T11:02:33;6.88;;;1.52;;
38499;SDS011;24269;51.894;4.622;2022-07-22T11:05:00;6.57;;;1.90;;
38499;SDS011;24269;51.894;4.622;2022-07-22T11:07:26;5.57;;;1.40;;
38499;SDS011;24269;51.894;4.622;2022-07-22T11:09:54;4.63;;;1.30;;
38499;SDS011;24269;51.894;4.622;2022-07-22T11:12:36;4.65;;;1.27;;
38499;SDS011;24269;51.894;4.622;2022-07-22T11:15:03;5.88;;;1.40;;
38499;SDS011;24269;51.894;4.622;2022-07-22T11:17:31;4.40;;;1.10;;
38499;SDS011;24269;51.894;4.622;2022-07-22T11:19:59;5.97;;;1.92;;
38499;SDS011;24269;51.894;4.622;2022-07-22T11:22:32;4.32;;;1.70;;
38499;SDS011;24269;51.894;4.622;2022-07-22T11:24:59;5.00;;;1.52;;
38499;SDS011;24269;51.894;4.622;2022-07-22T11:27:27;8.07;;;1.75;;
38499;SDS011;24269;51.894;4.622;2022-07-22T11:29:53;6.20;;;1.77;;
38499;SDS011;24269;51.894;4.622;2022-07-22T11:32:21;5.03;;;1.70;;
38499;SDS011;24269;51.894;4.622;2022-07-22T11:34:48;5.50;;;1.70;;
38499;SDS011;24269;51.894;4.622;2022-07-22T11:37:14;5.65;;;1.50;;
38499;SDS011;24269;51.894;4.622;2022-07-22T11:39:45;3.95;;;1.60;;
38499;SDS011;24269;51.894;4.622;2022-07-22T11:42:11;4.93;;;1.70;;
38499;SDS011;24269;51.894;4.622;2022-07-22T11:44:37;4.47;;;1.70;;
38499;SDS011;24269;51.894;4.622;2022-07-22T11:47:04;7.75;;;1.60;;
38499;SDS011;24269;51.894;4.622;2022-07-22T11:49:33;4.97;;;1.65;;
38499;SDS011;24269;51.894;4.622;2022-07-22T11:52:02;5.32;;;1.50;;
38499;SDS011;24269;51.894;4.622;2022-07-22T11:54:28;4.35;;;1.58;;
38499;SDS011;24269;51.894;4.622;2022-07-22T11:56:54;4.78;;;1.60;;
38499;SDS011;24269;51.894;4.622;2022-07-22T11:59:21;6.35;;;1.67;;
38499;SDS011;24269;51.894;4.622;2022-07-22T12:01:48;5.35;;;1.40;;
38499;SDS011;24269;51.894;4.622;2022-07-22T12:04:15;5.45;;;1.65;;
38499;SDS011;24269;51.894;4.622;2022-07-22T12:06:43;5.55;;;1.60;;
38499;SDS011;24269;51.894;4.622;2022-07-22T12:09:14;6.00;;;1.60;;
38499;SDS011;24269;51.894;4.622;2022-07-22T12:11:49;7.75;;;1.58;;
38499;SDS011;24269;51.894;4.622;2022-07-22T12:14:22;3.55;;;1.35;;
38499;SDS011;24269;51.894;4.622;2022-07-22T12:16:57;5.10;;;1.75;;
38499;SDS011;24269;51.894;4.622;2022-07-22T12:19:29;6.60;;;1.90;;
38499;SDS011;24269;51.894;4.622;2022-07-22T12:22:01;5.07;;;1.65;;
38499;SDS011;24269;51.894;4.622;2022-07-22T12:24:31;5.20;;;1.50;;
38499;SDS011;24269;51.894;4.622;2022-07-22T12:32:04;7.65;;;1.65;;
38499;SDS011;24269;51.894;4.622;2022-07-22T12:34:39;6.70;;;2.20;;
38499;SDS011;24269;51.894;4.622;2022-07-22T12:37:42;6.97;;;2.20;;
38499;SDS011;24269;51.894;4.622;2022-07-22T12:40:11;7.47;;;2.25;;
38499;SDS011;24269;51.894;4.622;2022-07-22T12:42:44;7.45;;;2.05;;
38499;SDS011;24269;51.894;4.622;2022-07-22T12:45:25;4.70;;;1.90;;
38499;SDS011;24269;51.894;4.622;2022-07-22T12:50:38;4.35;;;1.95;;
38499;SDS011;24269;51.894;4.622;2022-07-22T12:53:06;6.25;;;2.53;;
38499;SDS011;24269;51.894;4.622;2022-07-22T12:55:40;7.18;;;2.20;;
38499;SDS011;24269;51.894;4.622;2022-07-22T12:58:06;6.50;;;2.20;;
38499;SDS011;24269;51.894;4.622;2022-07-22T13:00:34;6.28;;;2.20;;
38499;SDS011;24269;51.894;4.622;2022-07-22T13:03:01;5.47;;;2.42;;
38499;SDS011;24269;51.894;4.622;2022-07-22T13:05:27;6.07;;;2.80;;
38499;SDS011;24269;51.894;4.622;2022-07-22T13:07:53;6.65;;;2.40;;
38499;SDS011;24269;51.894;4.622;2022-07-22T13:10:23;6.68;;;2.75;;
38499;SDS011;24269;51.894;4.622;2022-07-22T13:12:50;5.47;;;2.60;;
38499;SDS011;24269;51.894;4.622;2022-07-22T13:15:16;4.85;;;1.85;;
38499;SDS011;24269;51.894;4.622;2022-07-22T13:17:42;8.90;;;2.90;;
38499;SDS011;24269;51.894;4.622;2022-07-22T13:20:09;5.45;;;2.17;;
38499;SDS011;24269;51.894;4.622;2022-07-22T13:22:35;6.80;;;2.38;;
38499;SDS011;24269;51.894;4.622;2022-07-22T13:25:01;6.15;;;2.53;;
38499;SDS011;24269;51.894;4.622;2022-07-22T13:27:28;6.60;;;2.70;;
38499;SDS011;24269;51.894;4.622;2022-07-22T13:29:54;7.05;;;2.42;;
38499;SDS011;24269;51.894;4.622;2022-07-22T13:32:19;6.57;;;2.25;;
38499;SDS011;24269;51.894;4.622;2022-07-22T13:34:45;5.90;;;2.33;;
38499;SDS011;24269;51.894;4.622;2022-07-22T13:37:11;6.65;;;2.53;;
38499;SDS011;24269;51.894;4.622;2022-07-22T13:39:37;7.53;;;2.30;;
38499;SDS011;24269;51.894;4.622;2022-07-22T13:42:03;6.43;;;1.80;;
38499;SDS011;24269;51.894;4.622;2022-07-22T13:44:29;6.22;;;2.40;;
38499;SDS011;24269;51.894;4.622;2022-07-22T13:46:57;5.93;;;1.90;;
38499;SDS011;24269;51.894;4.622;2022-07-22T13:49:23;4.50;;;1.95;;
38499;SDS011;24269;51.894;4.622;2022-07-22T13:51:49;4.78;;;1.52;;
38499;SDS011;24269;51.894;4.622;2022-07-22T13:54:16;4.35;;;1.80;;
38499;SDS011;24269;51.894;4.622;2022-07-22T13:56:42;6.65;;;1.90;;
38499;SDS011;24269;51.894;4.622;2022-07-22T13:59:09;6.40;;;2.30;;
38499;SDS011;24269;51.894;4.622;2022-07-22T14:01:36;6.65;;;1.90;;
38499;SDS011;24269;51.894;4.622;2022-07-22T14:04:02;8.07;;;2.13;;
38499;SDS011;24269;51.894;4.622;2022-07-22T14:06:29;7.07;;;1.48;;
38499;SDS011;24269;51.894;4.622;2022-07-22T14:08:55;6.90;;;1.55;;
38499;SDS011;24269;51.894;4.622;2022-07-22T14:11:21;5.15;;;1.98;;
38499;SDS011;24269;51.894;4.622;2022-07-22T14:13:46;8.80;;;2.03;;
38499;SDS011;24269;51.894;4.622;2022-07-22T14:16:12;3.40;;;1.30;;
38499;SDS011;24269;51.894;4.622;2022-07-22T14:18:56;5.78;;;1.40;;
38499;SDS011;24269;51.894;4.622;2022-07-22T14:21:22;4.25;;;1.23;;
38499;SDS011;24269;51.894;4.622;2022-07-22T14:23:47;5.47;;;1.63;;
38499;SDS011;24269;51.894;4.622;2022-07-22T14:26:13;5.05;;;1.52;;
38499;SDS011;24269;51.894;4.622;2022-07-22T14:28:38;5.90;;;1.60;;
38499;SDS011;24269;51.894;4.622;2022-07-22T14:31:04;4.47;;;1.17;;
38499;SDS011;24269;51.894;4.622;2022-07-22T14:33:30;5.25;;;1.40;;
38499;SDS011;24269;51.894;4.622;2022-07-22T14:35:55;6.00;;;1.40;;
38499;SDS011;24269;51.894;4.622;2022-07-22T14:38:21;4.28;;;1.33;;
38499;SDS011;24269;51.894;4.622;2022-07-22T14:40:46;4.13;;;1.15;;
38499;SDS011;24269;51.894;4.622;2022-07-22T14:43:12;4.82;;;1.10;;
38499;SDS011;24269;51.894;4.622;2022-07-22T14:45:38;6.35;;;1.48;;
38499;SDS011;24269;51.894;4.622;2022-07-22T14:48:03;3.70;;;1.20;;
38499;SDS011;24269;51.894;4.622;2022-07-22T14:50:29;5.47;;;1.40;;
38499;SDS011;24269;51.894;4.622;2022-07-22T14:52:55;5.60;;;1.58;;
38499;SDS011;24269;51.894;4.622;2022-07-22T14:55:20;5.55;;;1.25;;
38499;SDS011;24269;51.894;4.622;2022-07-22T14:57:46;3.80;;;1.02;;
38499;SDS011;24269;51.894;4.622;2022-07-22T15:00:12;3.80;;;1.15;;
38499;SDS011;24269;51.894;4.622;2022-07-22T15:02:37;4.38;;;1.15;;
38499;SDS011;24269;51.894;4.622;2022-07-22T15:05:03;4.75;;;1.35;;
38499;SDS011;24269;51.894;4.622;2022-07-22T15:07:29;5.03;;;1.40;;
38499;SDS011;24269;51.894;4.622;2022-07-22T15:09:55;5.18;;;1.40;;